createdAt,value
2023-01-09T00:00:09.411Z,6.96
2023-01-09T00:02:40.662Z,6.99
2023-01-09T00:05:11.827Z,6.97
2023-01-09T00:07:40.517Z,6.96
2023-01-09T00:10:10.506Z,6.93
2023-01-09T00:12:39.237Z,6.99
2023-01-09T00:15:09.228Z,6.95
2023-01-09T00:17:37.952Z,6.97
2023-01-09T00:20:09.478Z,6.94
2023-01-09T00:22:39.433Z,6.92
2023-01-09T00:25:08.885Z,6.94
2023-01-09T00:27:38.064Z,6.99
2023-01-09T00:30:08.195Z,6.99
2023-01-09T00:32:36.889Z,7.04
2023-01-09T00:35:06.291Z,7.05
2023-01-09T00:37:35.984Z,7.02
2023-01-09T00:40:06.815Z,7.02
2023-01-09T00:42:36.549Z,7.02
2023-01-09T00:45:08.870Z,6.96
2023-01-09T00:47:42.867Z,6.95
2023-01-09T00:50:14.683Z,6.94
2023-01-09T00:52:43.906Z,6.91
2023-01-09T00:55:14.038Z,6.94
2023-01-09T00:57:42.707Z,6.92
2023-01-09T01:00:12.491Z,6.96
2023-01-09T01:02:41.179Z,6.94
2023-01-09T01:05:28.022Z,6.93
2023-01-09T01:07:56.662Z,6.91
2023-01-09T01:10:27.366Z,6.90
2023-01-09T01:12:56.355Z,6.91
2023-01-09T01:15:29.239Z,6.88
2023-01-09T01:17:58.007Z,6.89
2023-01-09T01:20:26.671Z,6.89
2023-01-09T01:22:55.371Z,6.89
2023-01-09T01:25:25.788Z,6.89
2023-01-09T01:27:55.656Z,6.86
2023-01-09T01:30:24.293Z,6.84
2023-01-09T01:32:52.942Z,6.84
2023-01-09T01:35:22.500Z,6.84
2023-01-09T01:37:51.198Z,6.83
2023-01-09T01:40:19.833Z,6.84
2023-01-09T01:42:51.066Z,6.84
2023-01-09T01:45:20.884Z,6.79
2023-01-09T01:47:55.986Z,6.83
2023-01-09T01:50:28.968Z,6.84
2023-01-09T01:53:03.638Z,6.86
2023-01-09T01:55:32.554Z,6.83
2023-01-09T01:58:05.307Z,6.84
2023-01-09T02:00:36.456Z,6.82
2023-01-09T02:03:05.392Z,6.85
2023-01-09T02:05:34.456Z,6.85
2023-01-09T02:08:03.042Z,6.87
2023-01-09T02:10:31.794Z,6.84
2023-01-09T02:13:02.003Z,6.81
2023-01-09T02:15:36.317Z,6.83
2023-01-09T02:18:33.080Z,6.84
2023-01-09T02:21:03.779Z,6.88
2023-01-09T02:24:03.388Z,6.90
2023-01-09T02:27:04.470Z,6.86
2023-01-09T02:30:11.612Z,6.93
2023-01-09T02:32:50.514Z,6.91
2023-01-09T02:35:26.649Z,6.90
2023-01-09T02:38:05.078Z,6.94
2023-01-09T02:40:36.601Z,6.97
2023-01-09T02:43:06.289Z,6.95
2023-01-09T02:45:36.303Z,6.96
2023-01-09T02:48:05.279Z,6.96
2023-01-09T02:50:38.091Z,6.97
2023-01-09T02:53:28.981Z,7.00
2023-01-09T02:56:07.386Z,6.97
2023-01-09T02:58:57.596Z,6.95
2023-01-09T03:01:34.211Z,6.99
2023-01-09T03:04:05.839Z,6.97
2023-01-09T03:06:39.326Z,7.00
2023-01-09T03:09:10.009Z,6.98
2023-01-09T03:11:43.630Z,6.94
2023-01-09T03:14:15.738Z,6.94
2023-01-09T03:16:48.078Z,6.91
2023-01-09T03:19:17.890Z,6.95
2023-01-09T03:21:47.610Z,6.94
2023-01-09T03:24:16.226Z,6.91
2023-01-09T03:26:45.064Z,6.91
2023-01-09T03:29:13.669Z,6.88
2023-01-09T03:31:42.303Z,6.86
2023-01-09T03:34:12.299Z,6.88
2023-01-09T03:36:41.278Z,6.84
2023-01-09T03:39:09.836Z,6.76
2023-01-09T03:41:38.429Z,6.81
2023-01-09T03:44:07.014Z,6.87
2023-01-09T03:46:35.687Z,6.90
2023-01-09T03:49:04.327Z,6.85
2023-01-09T03:51:34.247Z,6.83
2023-01-09T03:54:02.851Z,6.86
2023-01-09T03:56:31.414Z,6.85
2023-01-09T03:59:00.066Z,6.88
2023-01-09T04:01:28.737Z,6.88
2023-01-09T04:03:57.431Z,6.86
2023-01-09T04:06:26.097Z,6.84
2023-01-09T04:08:56.228Z,6.84
2023-01-09T04:11:24.789Z,6.84
2023-01-09T04:13:53.390Z,6.86
2023-01-09T04:16:22.067Z,6.88
2023-01-09T04:18:50.651Z,6.86
2023-01-09T04:21:19.242Z,6.87
2023-01-09T04:23:47.867Z,6.83
2023-01-09T04:26:17.833Z,6.85
2023-01-09T04:28:46.474Z,6.80
2023-01-09T04:31:15.085Z,6.73
2023-01-09T04:33:43.783Z,6.75
2023-01-09T04:36:12.592Z,6.66
2023-01-09T04:38:41.224Z,6.70
2023-01-09T04:41:09.848Z,6.57
2023-01-09T04:43:42.120Z,6.60
2023-01-09T04:46:10.757Z,6.57
2023-01-09T04:48:39.307Z,6.57
2023-01-09T04:51:07.900Z,6.59
2023-01-09T04:53:36.481Z,6.60
2023-01-09T04:56:05.416Z,6.53
2023-01-09T04:58:33.990Z,6.47
2023-01-09T05:01:04.104Z,6.52
2023-01-09T05:03:32.754Z,6.48
2023-01-09T05:06:01.342Z,6.46
2023-01-09T05:08:30.013Z,6.40
2023-01-09T05:10:58.606Z,6.35
2023-01-09T05:13:27.224Z,6.33
2023-01-09T05:15:55.866Z,6.31
2023-01-09T05:18:25.858Z,6.24
2023-01-09T05:20:54.446Z,6.23
2023-01-09T05:23:23.048Z,6.24
2023-01-09T05:25:51.609Z,6.28
2023-01-09T05:28:20.214Z,6.20
2023-01-09T05:30:48.854Z,6.18
2023-01-09T05:33:17.438Z,6.18
2023-01-09T05:35:47.403Z,6.13
2023-01-09T05:38:16.046Z,6.12
2023-01-09T05:40:44.664Z,6.05
2023-01-09T05:43:13.871Z,6.08
2023-01-09T05:45:42.611Z,6.01
2023-01-09T05:48:11.449Z,6.01
2023-01-09T05:50:40.083Z,5.99
2023-01-09T05:53:10.089Z,5.88
2023-01-09T05:55:38.651Z,5.89
2023-01-09T05:58:07.242Z,5.79
2023-01-09T06:00:35.871Z,5.80
2023-01-09T06:03:04.805Z,5.78
2023-01-09T06:05:33.801Z,5.65
2023-01-09T06:08:02.444Z,5.57
2023-01-09T06:10:32.363Z,5.55
2023-01-09T06:13:00.918Z,5.55
2023-01-09T06:15:29.534Z,5.50
2023-01-09T06:17:58.198Z,5.51
2023-01-09T06:20:26.859Z,5.48
2023-01-09T06:22:55.452Z,5.51
2023-01-09T06:25:24.162Z,5.48
2023-01-09T06:27:54.085Z,5.44
2023-01-09T06:30:22.957Z,5.39
2023-01-09T06:32:51.623Z,5.41
2023-01-09T06:35:22.224Z,5.34
2023-01-09T06:37:51.166Z,5.25
2023-01-09T06:40:21.142Z,5.25
2023-01-09T06:42:50.370Z,5.24
2023-01-09T06:45:20.375Z,5.20
2023-01-09T06:47:50.126Z,5.10
2023-01-09T06:50:19.335Z,5.12
2023-01-09T06:52:47.966Z,5.12
2023-01-09T06:55:17.753Z,5.11
2023-01-09T06:57:46.377Z,5.11
2023-01-09T07:00:15.683Z,5.07
2023-01-09T07:02:45.701Z,5.09
2023-01-09T07:05:14.463Z,5.05
2023-01-09T07:07:43.218Z,5.07
2023-01-09T07:10:12.749Z,5.05
2023-01-09T07:12:41.345Z,5.00
2023-01-09T07:15:10.697Z,4.96
2023-01-09T07:17:39.383Z,4.95
2023-01-09T07:20:11.049Z,4.93
2023-01-09T07:22:39.778Z,4.96
2023-01-09T07:25:09.044Z,4.98
2023-01-09T07:27:38.040Z,5.01
2023-01-09T07:30:08.110Z,5.01
2023-01-09T07:32:38.495Z,4.98
2023-01-09T07:35:09.604Z,4.94
2023-01-09T07:37:38.224Z,4.95
2023-01-09T07:40:08.179Z,4.92
2023-01-09T07:42:36.847Z,4.96
2023-01-09T07:45:06.498Z,4.95
2023-01-09T07:47:35.167Z,4.95
2023-01-09T07:50:03.926Z,4.99
2023-01-09T07:52:33.909Z,4.94
2023-01-09T07:55:02.606Z,4.94
2023-01-09T07:57:31.268Z,4.97
2023-01-09T08:00:01.093Z,4.96
2023-01-09T08:02:29.839Z,4.99
2023-01-09T08:04:58.449Z,5.01
2023-01-09T08:07:27.080Z,5.06
2023-01-09T08:09:57.075Z,5.07
2023-01-09T08:12:25.695Z,5.06
2023-01-09T08:14:54.383Z,5.07
2023-01-09T08:17:24.360Z,5.08
2023-01-09T08:19:53.779Z,5.11
2023-01-09T08:22:22.511Z,5.18
2023-01-09T08:24:51.157Z,5.21
2023-01-09T08:27:21.459Z,5.20
2023-01-09T08:29:50.104Z,5.21
2023-01-09T08:32:18.728Z,5.26
2023-01-09T08:34:47.548Z,5.30
2023-01-09T08:37:16.295Z,5.32
2023-01-09T08:39:44.976Z,5.29
2023-01-09T08:42:31.039Z,5.29
2023-01-09T08:45:18.489Z,5.26
2023-01-09T08:47:47.193Z,5.28
2023-01-09T08:50:16.060Z,5.29
2023-01-09T08:52:44.686Z,5.32
2023-01-09T08:55:13.299Z,5.33
2023-01-09T08:57:48.677Z,5.34
2023-01-09T09:00:20.737Z,5.29
2023-01-09T09:02:51.996Z,5.28
2023-01-09T09:05:21.839Z,5.33
2023-01-09T09:07:51.031Z,5.34
2023-01-09T09:10:19.839Z,5.28
2023-01-09T09:12:50.135Z,5.33
2023-01-09T09:15:24.016Z,5.35
2023-01-09T09:17:54.597Z,5.41
2023-01-09T09:20:24.090Z,5.45
2023-01-09T09:22:53.324Z,5.57
2023-01-09T09:25:22.452Z,5.64
2023-01-09T09:27:51.256Z,5.65
2023-01-09T09:30:21.719Z,5.70
2023-01-09T09:32:50.612Z,5.71
2023-01-09T09:35:20.965Z,5.77
2023-01-09T09:37:56.904Z,5.83
2023-01-09T09:40:39.359Z,5.92
2023-01-09T09:43:42.091Z,6.00
2023-01-09T09:46:18.240Z,6.03
2023-01-09T09:48:51.100Z,6.09
2023-01-09T09:51:43.946Z,6.11
2023-01-09T09:54:16.167Z,6.18
2023-01-09T09:56:48.907Z,6.24
2023-01-09T09:59:19.645Z,6.24
2023-01-09T10:01:53.942Z,6.18
2023-01-09T10:04:25.192Z,6.21
2023-01-09T10:06:56.252Z,6.33
2023-01-09T10:09:33.900Z,6.42
2023-01-09T10:12:05.321Z,6.48
2023-01-09T10:14:34.005Z,6.51
2023-01-09T10:17:14.021Z,6.50
2023-01-09T10:20:08.044Z,6.49
2023-01-09T10:22:44.998Z,6.48
2023-01-09T10:25:22.978Z,6.59
2023-01-09T10:28:02.066Z,6.61
2023-01-09T10:30:39.162Z,6.65
2023-01-09T10:33:25.002Z,6.70
2023-01-09T10:36:31.972Z,6.86
2023-01-09T10:39:04.226Z,6.99
2023-01-09T10:41:36.239Z,7.13
2023-01-09T10:44:09.221Z,7.12
2023-01-09T10:46:42.970Z,7.14
2023-01-09T10:49:15.446Z,7.12
2023-01-09T10:51:47.915Z,7.17
2023-01-09T10:54:20.037Z,7.19
2023-01-09T10:56:55.309Z,7.19
2023-01-09T10:59:24.374Z,7.13
2023-01-09T11:01:53.155Z,7.21
2023-01-09T11:04:26.684Z,7.31
2023-01-09T11:06:59.859Z,7.36
2023-01-09T11:09:28.548Z,7.40
2023-01-09T11:11:57.208Z,7.34
2023-01-09T11:14:31.236Z,7.28
2023-01-09T11:17:01.304Z,7.25
2023-01-09T11:19:33.245Z,7.26
2023-01-09T11:22:09.721Z,7.34
2023-01-09T11:24:38.369Z,7.34
2023-01-09T11:27:34.143Z,7.42
2023-01-09T11:30:16.614Z,7.49
2023-01-09T11:32:46.397Z,7.54
2023-01-09T11:35:28.141Z,7.38
2023-01-09T11:38:04.505Z,7.43
2023-01-09T11:40:37.721Z,7.45
2023-01-09T11:43:14.221Z,7.43
2023-01-09T11:46:00.221Z,7.56
2023-01-09T11:48:33.813Z,7.64
2023-01-09T11:51:06.804Z,7.66
2023-01-09T11:54:00.002Z,7.68
2023-01-09T11:56:28.826Z,7.80
2023-01-09T11:58:57.462Z,7.88
2023-01-09T12:01:43.864Z,7.88
2023-01-09T12:04:21.086Z,7.93
2023-01-09T12:07:07.949Z,7.93
2023-01-09T12:09:40.464Z,7.97
2023-01-09T12:12:18.862Z,7.87
2023-01-09T12:14:57.578Z,7.94
2023-01-09T12:17:50.464Z,7.99
2023-01-09T12:20:38.410Z,8.06
2023-01-09T12:23:21.843Z,7.99
2023-01-09T12:25:55.774Z,7.88
2023-01-09T12:28:40.432Z,7.92
2023-01-09T12:31:18.427Z,7.85
2023-01-09T12:33:55.482Z,7.80
2023-01-09T12:36:28.392Z,7.77
2023-01-09T12:39:02.277Z,7.77
2023-01-09T12:41:48.987Z,7.73
2023-01-09T12:44:35.676Z,7.74
2023-01-09T12:47:18.757Z,7.84
2023-01-09T12:49:53.649Z,7.91
2023-01-09T12:52:25.301Z,7.84
2023-01-09T12:54:59.503Z,7.93
2023-01-09T12:57:32.616Z,7.95
2023-01-09T13:00:05.385Z,7.90
2023-01-09T13:02:36.728Z,7.95
2023-01-09T13:05:10.965Z,7.93
2023-01-09T13:07:42.612Z,8.00
2023-01-09T13:10:19.617Z,8.05
2023-01-09T13:12:49.467Z,8.09
2023-01-09T13:15:27.321Z,8.03
2023-01-09T13:17:58.844Z,8.01
2023-01-09T13:20:35.093Z,8.00
2023-01-09T13:23:04.127Z,7.93
2023-01-09T13:25:41.632Z,7.85
2023-01-09T13:28:17.065Z,7.83
2023-01-09T13:31:06.775Z,7.62
2023-01-09T13:33:37.378Z,7.42
2023-01-09T13:36:06.613Z,7.17
2023-01-09T13:38:36.328Z,7.19
2023-01-09T13:41:29.846Z,7.14
2023-01-09T13:44:00.127Z,7.12
2023-01-09T13:46:40.655Z,7.16
2023-01-09T13:49:30.754Z,7.13
2023-01-09T13:52:03.970Z,7.13
2023-01-09T13:55:05.111Z,7.19
2023-01-09T13:57:36.745Z,7.21
2023-01-09T14:00:42.937Z,7.16
2023-01-09T14:03:20.489Z,7.05
2023-01-09T14:06:18.513Z,7.08
2023-01-09T14:08:49.219Z,7.13
2023-01-09T14:11:27.251Z,7.08
2023-01-09T14:14:03.784Z,7.03
2023-01-09T14:16:33.217Z,7.12
2023-01-09T14:19:06.090Z,7.13
2023-01-09T14:21:46.783Z,7.03
2023-01-09T14:24:22.207Z,7.11
2023-01-09T14:26:55.256Z,7.02
2023-01-09T14:29:48.525Z,7.10
2023-01-09T14:32:44.830Z,7.03
2023-01-09T14:35:41.964Z,7.05
2023-01-09T14:38:21.441Z,6.95
2023-01-09T14:40:54.428Z,6.96
2023-01-09T14:43:27.815Z,6.92
2023-01-09T14:46:05.591Z,6.90
2023-01-09T14:48:35.152Z,7.18
2023-01-09T14:51:08.350Z,7.34
2023-01-09T14:53:39.511Z,7.33
2023-01-09T14:56:25.485Z,7.21
2023-01-09T14:59:05.169Z,7.10
2023-01-09T15:01:36.917Z,6.83
2023-01-09T15:04:07.758Z,6.79
2023-01-09T15:06:37.580Z,6.78
2023-01-09T15:09:09.134Z,6.78
2023-01-09T15:11:40.383Z,6.72
2023-01-09T15:14:13.852Z,6.77
2023-01-09T15:16:46.182Z,6.75
2023-01-09T15:19:15.875Z,6.76
2023-01-09T15:21:57.535Z,6.78
2023-01-09T15:24:29.664Z,6.73
2023-01-09T15:26:59.897Z,6.70
2023-01-09T15:29:28.979Z,6.67
2023-01-09T15:32:02.967Z,6.69
2023-01-09T15:34:31.737Z,6.64
2023-01-09T15:37:00.809Z,6.67
2023-01-09T15:39:32.539Z,6.62
2023-01-09T15:42:18.901Z,6.67
2023-01-09T15:44:50.131Z,6.68
2023-01-09T15:47:23.083Z,6.71
2023-01-09T15:49:52.180Z,6.69
2023-01-09T15:52:22.186Z,6.70
2023-01-09T15:54:50.821Z,6.71
2023-01-09T15:57:30.869Z,6.69
2023-01-09T16:00:33.232Z,6.68
2023-01-09T16:03:12.011Z,6.62
2023-01-09T16:05:41.435Z,6.39
2023-01-09T16:08:21.815Z,6.45
2023-01-09T16:10:52.093Z,6.45
2023-01-09T16:13:22.869Z,6.43
2023-01-09T16:15:52.172Z,6.34
2023-01-09T16:18:24.712Z,6.22
2023-01-09T16:21:03.072Z,6.23
2023-01-09T16:23:33.992Z,6.18
2023-01-09T16:26:07.868Z,6.12
2023-01-09T16:28:40.666Z,6.15
2023-01-09T16:31:20.619Z,6.09
2023-01-09T16:33:55.381Z,6.04
2023-01-09T16:36:24.002Z,6.08
2023-01-09T16:38:53.608Z,6.07
2023-01-09T16:41:40.685Z,5.95
2023-01-09T16:44:10.634Z,5.98
2023-01-09T16:46:43.303Z,6.01
2023-01-09T16:49:21.473Z,5.96
2023-01-09T16:51:50.395Z,6.00
2023-01-09T16:54:19.173Z,5.99
2023-01-09T16:56:49.500Z,5.94
2023-01-09T16:59:21.021Z,5.93
2023-01-09T17:01:49.811Z,5.84
2023-01-09T17:04:20.630Z,5.73
2023-01-09T17:06:49.983Z,5.69
2023-01-09T17:09:20.079Z,5.76
2023-01-09T17:11:48.734Z,5.78
2023-01-09T17:14:17.497Z,5.69
2023-01-09T17:16:46.785Z,5.70
2023-01-09T17:19:20.402Z,5.63
2023-01-09T17:21:49.067Z,5.69
2023-01-09T17:24:35.158Z,5.72
2023-01-09T17:27:21.645Z,5.65
2023-01-09T17:29:50.287Z,5.63
2023-01-09T17:32:19.520Z,5.58
2023-01-09T17:34:49.632Z,5.56
2023-01-09T17:37:19.537Z,5.54
2023-01-09T17:39:48.248Z,5.58
2023-01-09T17:42:16.932Z,5.60
2023-01-09T17:44:45.565Z,5.57
2023-01-09T17:47:15.848Z,5.47
2023-01-09T17:49:44.453Z,5.54
2023-01-09T17:52:14.462Z,5.57
2023-01-09T17:54:43.105Z,5.50
2023-01-09T17:57:15.382Z,5.55
2023-01-09T17:59:44.869Z,5.58
2023-01-09T18:02:17.906Z,5.53
2023-01-09T18:04:46.716Z,5.50
2023-01-09T18:07:17.373Z,5.48
2023-01-09T18:09:46.254Z,5.41
2023-01-09T18:12:15.070Z,5.49
2023-01-09T18:14:44.077Z,5.47
2023-01-09T18:17:13.074Z,5.51
2023-01-09T18:19:42.115Z,5.53
2023-01-09T18:22:10.804Z,5.42
2023-01-09T18:24:41.422Z,5.46
2023-01-09T18:27:10.028Z,5.38
2023-01-09T18:29:38.688Z,5.44
2023-01-09T18:32:07.386Z,5.34
2023-01-09T18:34:36.167Z,5.26
2023-01-09T18:37:05.469Z,5.27
2023-01-09T18:39:34.130Z,5.29
2023-01-09T18:42:04.119Z,5.18
2023-01-09T18:44:32.819Z,5.24
2023-01-09T18:47:02.055Z,5.30
2023-01-09T18:49:30.750Z,5.45
2023-01-09T18:51:59.866Z,5.48
2023-01-09T18:54:28.483Z,5.45
2023-01-09T18:56:57.203Z,5.39
2023-01-09T18:59:27.228Z,5.36
2023-01-09T19:01:55.879Z,5.34
2023-01-09T19:04:24.568Z,5.32
2023-01-09T19:06:56.054Z,5.26
2023-01-09T19:09:25.038Z,5.17
2023-01-09T19:11:53.687Z,5.14
2023-01-09T19:14:22.272Z,5.18
2023-01-09T19:16:54.398Z,5.16
2023-01-09T19:19:23.105Z,5.19
2023-01-09T19:21:51.745Z,5.25
2023-01-09T19:24:21.158Z,5.22
2023-01-09T19:26:49.883Z,5.22
2023-01-09T19:29:18.797Z,5.17
2023-01-09T19:31:48.611Z,5.16
2023-01-09T19:34:18.873Z,5.15
2023-01-09T19:36:48.273Z,5.12
2023-01-09T19:39:17.091Z,5.11
2023-01-09T19:41:45.703Z,4.99
2023-01-09T19:44:14.365Z,5.05
2023-01-09T19:46:42.998Z,5.06
2023-01-09T19:49:11.646Z,4.97
2023-01-09T19:51:42.396Z,5.05
2023-01-09T19:54:11.902Z,4.94
2023-01-09T19:56:43.943Z,4.99
2023-01-09T19:59:13.537Z,5.05
2023-01-09T20:01:42.504Z,4.98
2023-01-09T20:04:14.994Z,4.97
2023-01-09T20:06:46.317Z,4.96
2023-01-09T20:09:17.010Z,4.98
2023-01-09T20:11:45.831Z,5.01
2023-01-09T20:14:15.138Z,4.96
2023-01-09T20:16:44.310Z,4.97
2023-01-09T20:19:14.163Z,4.97
2023-01-09T20:21:43.237Z,5.02
2023-01-09T20:24:14.924Z,5.06
2023-01-09T20:26:43.613Z,5.08
2023-01-09T20:29:12.660Z,5.09
2023-01-09T20:31:41.364Z,5.12
2023-01-09T20:34:11.070Z,5.06
2023-01-09T20:36:39.877Z,5.08
2023-01-09T20:39:10.576Z,5.08
2023-01-09T20:41:40.905Z,5.09
2023-01-09T20:44:13.027Z,5.08
2023-01-09T20:46:43.064Z,5.04
2023-01-09T20:49:14.088Z,4.93
2023-01-09T20:51:44.147Z,4.95
2023-01-09T20:54:13.426Z,4.89
2023-01-09T20:56:43.582Z,4.91
2023-01-09T20:59:13.443Z,4.91
2023-01-09T21:01:42.014Z,4.91
2023-01-09T21:04:10.865Z,4.94
2023-01-09T21:06:39.634Z,4.94
2023-01-09T21:09:08.436Z,4.96
2023-01-09T21:11:37.157Z,4.97
2023-01-09T21:14:07.146Z,4.94
2023-01-09T21:16:35.887Z,4.98
2023-01-09T21:19:04.558Z,5.03
2023-01-09T21:21:33.216Z,5.07
2023-01-09T21:24:02.265Z,5.07
2023-01-09T21:26:31.137Z,5.05
2023-01-09T21:29:02.811Z,5.08
2023-01-09T21:31:35.063Z,5.06
2023-01-09T21:34:05.557Z,5.07
2023-01-09T21:36:35.094Z,5.09
2023-01-09T21:39:07.682Z,5.07
2023-01-09T21:41:54.490Z,5.11
2023-01-09T21:44:40.758Z,5.09
2023-01-09T21:47:10.909Z,5.03
2023-01-09T21:49:41.403Z,5.05
2023-01-09T21:52:10.571Z,5.11
2023-01-09T21:54:39.662Z,5.14
2023-01-09T21:57:09.135Z,5.11
2023-01-09T21:59:37.792Z,5.12
2023-01-09T22:02:06.495Z,5.11
2023-01-09T22:04:36.473Z,5.11
2023-01-09T22:07:05.116Z,5.12
2023-01-09T22:09:33.811Z,5.13
2023-01-09T22:12:02.463Z,5.14
2023-01-09T22:14:31.140Z,5.14
2023-01-09T22:16:59.792Z,5.10
2023-01-09T22:19:28.454Z,5.14
2023-01-09T22:21:59.782Z,5.11
2023-01-09T22:24:28.389Z,5.15
2023-01-09T22:26:57.006Z,5.14
2023-01-09T22:29:25.845Z,5.15
2023-01-09T22:31:54.541Z,5.16
2023-01-09T22:34:23.369Z,5.13
2023-01-09T22:36:52.029Z,5.17
2023-01-09T22:39:22.004Z,5.19
2023-01-09T22:41:52.345Z,5.19
2023-01-09T22:44:21.033Z,5.21
2023-01-09T22:46:49.664Z,5.18
2023-01-09T22:49:18.323Z,5.19
2023-01-09T22:51:47.039Z,5.19
2023-01-09T22:54:15.794Z,5.18
2023-01-09T22:56:45.764Z,5.16
2023-01-09T22:59:14.339Z,5.16
2023-01-09T23:01:43.002Z,5.19
2023-01-09T23:04:13.330Z,5.23
2023-01-09T23:06:41.914Z,5.21
2023-01-09T23:09:10.932Z,5.17
2023-01-09T23:11:57.131Z,5.17
2023-01-09T23:14:27.077Z,5.15
2023-01-09T23:16:56.313Z,5.13
2023-01-09T23:19:25.011Z,5.15
2023-01-09T23:21:53.658Z,5.14
2023-01-09T23:24:22.282Z,5.15
2023-01-09T23:26:52.173Z,5.13
2023-01-09T23:29:20.895Z,5.15
2023-01-09T23:31:53.478Z,5.19
2023-01-09T23:34:24.263Z,5.23
2023-01-09T23:36:53.466Z,5.20
2023-01-09T23:39:22.192Z,5.18
2023-01-09T23:42:08.548Z,5.14
2023-01-09T23:44:37.153Z,5.13
2023-01-09T23:47:07.286Z,5.11
2023-01-09T23:49:35.976Z,5.14
2023-01-09T23:52:06.184Z,5.10
2023-01-09T23:54:34.966Z,5.10
2023-01-09T23:57:03.616Z,5.10
2023-01-09T23:59:32.352Z,5.10
